createdAt,value
2019-04-30T00:02:35.660Z,50.00
2019-04-30T00:04:58.500Z,52.60
2019-04-30T00:07:24.939Z,52.63
2019-04-30T00:09:53.999Z,50.70
2019-04-30T00:12:20.566Z,51.93
2019-04-30T00:14:46.813Z,50.80
2019-04-30T00:17:15.939Z,50.10
2019-04-30T00:19:41.297Z,51.87
2019-04-30T00:22:07.614Z,51.20
2019-04-30T00:24:35.454Z,51.50
2019-04-30T00:27:01.985Z,51.93
2019-04-30T00:29:31.004Z,53.10
2019-04-30T00:32:04.132Z,52.13
2019-04-30T00:34:25.558Z,53.03
2019-04-30T00:36:51.632Z,54.27
2019-04-30T00:39:17.763Z,52.97
2019-04-30T00:41:47.403Z,51.03
2019-04-30T00:44:12.287Z,51.47
2019-04-30T00:46:38.601Z,52.73
2019-04-30T00:49:09.856Z,52.03
2019-04-30T00:51:33.100Z,50.07
2019-04-30T00:53:59.313Z,50.03
2019-04-30T00:56:28.169Z,52.47
2019-04-30T00:58:57.470Z,49.50
2019-04-30T01:01:25.288Z,50.73
2019-04-30T01:04:10.079Z,51.43
2019-04-30T01:06:37.175Z,50.83
2019-04-30T01:09:05.445Z,48.87
2019-04-30T01:11:35.447Z,52.53
2019-04-30T01:14:01.464Z,52.70
2019-04-30T01:16:30.151Z,52.33
2019-04-30T01:18:55.891Z,51.23
2019-04-30T01:21:22.225Z,52.67
2019-04-30T01:23:54.552Z,52.07
2019-04-30T01:26:18.749Z,51.50
2019-04-30T01:28:45.333Z,50.87
2019-04-30T01:31:11.703Z,53.23
2019-04-30T01:33:39.002Z,53.77
2019-04-30T01:36:09.697Z,51.70
2019-04-30T01:38:33.722Z,50.23
2019-04-30T01:41:00.064Z,50.70
2019-04-30T01:43:31.769Z,51.20
2019-04-30T01:45:54.389Z,50.27
2019-04-30T01:48:20.674Z,49.13
2019-04-30T01:50:48.687Z,52.17
2019-04-30T01:53:15.194Z,48.17
2019-04-30T01:55:52.114Z,51.00
2019-04-30T01:58:20.231Z,51.53
2019-04-30T02:00:49.298Z,49.30
2019-04-30T02:03:15.883Z,49.23
2019-04-30T02:05:42.167Z,47.37
2019-04-30T02:08:08.484Z,48.43
2019-04-30T02:10:34.729Z,47.70
2019-04-30T02:13:00.928Z,51.77
2019-04-30T02:15:29.022Z,50.90
2019-04-30T02:17:55.059Z,49.27
2019-04-30T02:20:21.294Z,47.63
2019-04-30T02:22:48.644Z,43.07
2019-04-30T02:25:15.063Z,45.73
2019-04-30T02:27:41.252Z,47.00
2019-04-30T02:30:10.781Z,44.13
2019-04-30T02:32:35.814Z,46.50
2019-04-30T02:35:06.120Z,46.20
2019-04-30T02:37:34.177Z,46.80
2019-04-30T02:40:01.008Z,45.57
2019-04-30T02:42:29.702Z,46.37
2019-04-30T02:44:56.314Z,48.17
2019-04-30T02:47:23.375Z,46.50
2019-04-30T02:49:53.403Z,44.97
2019-04-30T02:52:21.766Z,48.87
2019-04-30T02:54:50.891Z,46.63
2019-04-30T02:57:16.983Z,47.70
2019-04-30T03:00:01.907Z,48.20
2019-04-30T03:02:30.467Z,48.60
2019-04-30T03:04:56.776Z,46.07
2019-04-30T03:07:22.895Z,49.10
2019-04-30T03:09:49.922Z,46.50
2019-04-30T03:12:16.206Z,48.77
2019-04-30T03:14:42.400Z,49.20
2019-04-30T03:17:20.891Z,48.47
2019-04-30T03:19:55.231Z,48.30
2019-04-30T03:22:23.433Z,47.07
2019-04-30T03:24:50.251Z,47.97
2019-04-30T03:27:16.538Z,48.17
2019-04-30T03:29:42.671Z,46.60
2019-04-30T03:32:13.647Z,46.67
2019-04-30T03:34:41.381Z,45.53
2019-04-30T03:37:05.159Z,46.73
2019-04-30T03:39:33.844Z,47.47
2019-04-30T03:41:59.786Z,44.80
2019-04-30T03:44:26.256Z,45.93
2019-04-30T03:46:52.468Z,45.90
2019-04-30T03:49:20.255Z,46.07
2019-04-30T03:51:46.599Z,46.87
2019-04-30T03:54:12.952Z,46.93
2019-04-30T03:56:40.514Z,45.73
2019-04-30T03:59:10.093Z,45.63
2019-04-30T04:01:39.749Z,45.10
2019-04-30T04:04:20.081Z,43.50
2019-04-30T04:07:00.640Z,44.47
2019-04-30T04:09:31.659Z,43.80
2019-04-30T04:12:00.026Z,44.80
2019-04-30T04:14:26.219Z,44.03
2019-04-30T04:16:52.339Z,45.03
2019-04-30T04:19:19.667Z,43.03
2019-04-30T04:21:45.917Z,44.50
2019-04-30T04:24:12.062Z,44.60
2019-04-30T04:26:43.315Z,45.10
2019-04-30T04:29:12.032Z,45.73
2019-04-30T04:31:34.561Z,43.30
2019-04-30T04:34:00.926Z,44.20
2019-04-30T04:36:29.947Z,43.40
2019-04-30T04:38:55.368Z,43.47
2019-04-30T04:41:21.584Z,43.77
2019-04-30T04:43:50.236Z,44.67
2019-04-30T04:46:15.934Z,42.07
2019-04-30T04:48:42.227Z,42.43
2019-04-30T04:51:14.582Z,41.50
2019-04-30T04:53:36.555Z,42.03
2019-04-30T04:56:02.780Z,43.00
2019-04-30T04:58:30.313Z,43.23
2019-04-30T05:00:59.119Z,41.93
2019-04-30T05:03:26.718Z,42.77
2019-04-30T05:05:53.064Z,42.13
2019-04-30T05:08:19.246Z,42.33
2019-04-30T05:10:45.465Z,42.73
2019-04-30T05:13:11.651Z,41.50
2019-04-30T05:15:39.038Z,42.93
2019-04-30T05:18:05.284Z,42.03
2019-04-30T05:20:31.525Z,41.07
2019-04-30T05:22:58.506Z,41.97
2019-04-30T05:25:24.824Z,40.37
2019-04-30T05:27:51.131Z,40.10
2019-04-30T05:30:19.397Z,41.07
2019-04-30T05:32:45.810Z,39.97
2019-04-30T05:35:12.108Z,40.37
2019-04-30T05:37:38.586Z,40.77
2019-04-30T05:40:05.928Z,39.50
2019-04-30T05:42:32.084Z,37.70
2019-04-30T05:44:59.352Z,39.03
2019-04-30T05:47:25.738Z,38.90
2019-04-30T05:49:51.871Z,41.43
2019-04-30T05:52:19.925Z,39.80
2019-04-30T05:54:46.162Z,38.27
2019-04-30T05:57:12.441Z,39.13
2019-04-30T05:59:38.869Z,39.47
2019-04-30T06:02:05.282Z,39.40
2019-04-30T06:04:31.497Z,37.33
2019-04-30T06:06:58.708Z,37.87
2019-04-30T06:09:33.655Z,38.90
2019-04-30T06:12:12.186Z,38.47
2019-04-30T06:14:52.599Z,39.80
2019-04-30T06:17:20.937Z,40.33
2019-04-30T06:19:49.125Z,39.40
2019-04-30T06:22:15.838Z,39.10
2019-04-30T06:24:42.137Z,39.07
2019-04-30T06:27:10.777Z,39.77
2019-04-30T06:29:39.075Z,39.23
2019-04-30T06:32:06.335Z,38.43
2019-04-30T06:34:32.898Z,37.40
2019-04-30T06:36:59.593Z,37.63
2019-04-30T06:39:26.034Z,39.37
2019-04-30T06:42:04.266Z,37.90
2019-04-30T06:44:34.758Z,37.50
2019-04-30T06:46:51.458Z,37.50
2019-04-30T06:49:19.475Z,39.80
2019-04-30T06:51:46.111Z,38.90
2019-04-30T06:54:12.445Z,38.33
2019-04-30T06:56:38.807Z,37.37
2019-04-30T06:59:05.156Z,36.87
2019-04-30T07:01:31.380Z,37.70
2019-04-30T07:04:00.809Z,36.30
2019-04-30T07:06:29.574Z,36.00
2019-04-30T07:09:10.835Z,37.17
2019-04-30T07:11:39.257Z,37.70
2019-04-30T07:14:05.781Z,36.90
2019-04-30T07:16:32.503Z,37.23
2019-04-30T07:18:58.756Z,37.70
2019-04-30T07:21:25.080Z,38.10
2019-04-30T07:23:51.494Z,38.90
2019-04-30T07:26:19.781Z,38.63
2019-04-30T07:28:51.828Z,39.97
2019-04-30T07:31:14.755Z,39.30
2019-04-30T07:33:41.257Z,38.60
2019-04-30T07:36:09.552Z,40.10
2019-04-30T07:38:42.133Z,37.67
2019-04-30T07:41:03.936Z,37.67
2019-04-30T07:43:30.264Z,39.37
2019-04-30T07:45:56.464Z,36.83
2019-04-30T07:48:26.393Z,35.13
2019-04-30T07:50:52.111Z,36.03
2019-04-30T07:53:18.867Z,36.57
2019-04-30T07:55:45.135Z,35.93
2019-04-30T07:58:11.454Z,35.37
2019-04-30T08:00:40.343Z,34.10
2019-04-30T08:03:10.427Z,35.03
2019-04-30T08:05:46.642Z,33.37
2019-04-30T08:08:21.203Z,34.70
2019-04-30T08:10:41.100Z,33.10
2019-04-30T08:13:13.931Z,33.97
2019-04-30T08:15:35.558Z,34.73
2019-04-30T08:18:05.727Z,34.30
2019-04-30T08:20:30.184Z,35.60
2019-04-30T08:22:56.421Z,35.87
2019-04-30T08:25:22.637Z,38.20
2019-04-30T08:27:49.378Z,35.10
2019-04-30T08:30:23.752Z,35.63
2019-04-30T08:32:43.889Z,33.93
2019-04-30T08:35:10.450Z,34.20
2019-04-30T08:37:38.569Z,33.47
2019-04-30T08:40:05.543Z,33.10
2019-04-30T08:42:34.617Z,33.77
2019-04-30T08:44:59.975Z,32.90
2019-04-30T08:47:26.206Z,34.43
2019-04-30T08:49:52.501Z,35.43
2019-04-30T08:52:19.578Z,34.23
2019-04-30T08:54:46.178Z,34.67
2019-04-30T08:57:12.416Z,35.20
2019-04-30T08:59:39.451Z,36.07
2019-04-30T09:02:13.632Z,35.23
2019-04-30T09:04:34.134Z,34.23
2019-04-30T09:07:00.308Z,33.50
2019-04-30T09:09:26.543Z,33.83
2019-04-30T09:11:55.597Z,35.47
2019-04-30T09:14:20.727Z,33.57
2019-04-30T09:16:47.068Z,32.63
2019-04-30T09:19:15.315Z,34.83
2019-04-30T09:21:41.536Z,34.77
2019-04-30T09:24:09.541Z,33.27
2019-04-30T09:26:36.821Z,34.30
2019-04-30T09:29:03.025Z,33.87
2019-04-30T09:31:29.707Z,31.00
2019-04-30T09:33:58.052Z,31.77
2019-04-30T09:36:24.086Z,37.37
2019-04-30T09:38:50.316Z,37.13
2019-04-30T09:41:16.390Z,32.60
2019-04-30T09:43:42.615Z,32.50
2019-04-30T09:46:18.733Z,36.33
2019-04-30T09:48:38.617Z,34.60
2019-04-30T09:51:05.525Z,35.57
2019-04-30T09:53:32.169Z,31.90
2019-04-30T09:55:59.617Z,32.27
2019-04-30T09:58:26.251Z,33.57
2019-04-30T10:00:52.601Z,32.87
2019-04-30T10:03:20.140Z,32.37
2019-04-30T10:05:48.967Z,32.77
2019-04-30T10:08:15.399Z,34.47
2019-04-30T10:10:43.523Z,33.97
2019-04-30T10:13:09.855Z,35.37
2019-04-30T10:15:50.016Z,36.47
2019-04-30T10:18:15.139Z,33.87
2019-04-30T10:20:42.645Z,35.50
2019-04-30T10:23:09.553Z,29.93
2019-04-30T10:25:36.598Z,31.60
2019-04-30T10:28:03.639Z,33.73
2019-04-30T10:30:34.448Z,34.10
2019-04-30T10:33:00.702Z,34.37
2019-04-30T10:35:28.552Z,30.97
2019-04-30T10:37:54.977Z,32.67
2019-04-30T10:40:21.167Z,32.13
2019-04-30T10:42:48.882Z,33.10
2019-04-30T10:45:15.691Z,31.17
2019-04-30T10:47:41.955Z,31.33
2019-04-30T10:50:09.889Z,31.57
2019-04-30T10:52:36.371Z,31.80
2019-04-30T10:55:04.729Z,32.87
2019-04-30T10:57:31.092Z,33.27
2019-04-30T10:59:58.696Z,30.83
2019-04-30T11:02:25.186Z,31.87
2019-04-30T11:04:51.379Z,28.10
2019-04-30T11:07:18.612Z,27.50
2019-04-30T11:09:45.081Z,29.00
2019-04-30T11:12:12.317Z,27.13
2019-04-30T11:14:38.486Z,27.17
2019-04-30T11:17:05.132Z,26.73
2019-04-30T11:19:31.828Z,26.33
2019-04-30T11:21:58.346Z,26.07
2019-04-30T11:24:35.934Z,25.87
2019-04-30T11:26:54.513Z,24.37
2019-04-30T11:29:23.050Z,23.83
2019-04-30T11:31:51.431Z,24.33
2019-04-30T11:34:17.872Z,23.50
2019-04-30T11:36:44.185Z,22.43
2019-04-30T11:39:12.936Z,21.90
2019-04-30T11:41:39.596Z,23.73
2019-04-30T11:44:06.003Z,22.90
2019-04-30T11:46:59.694Z,22.43
2019-04-30T11:49:27.289Z,22.53
2019-04-30T11:51:53.718Z,23.33
2019-04-30T11:54:20.835Z,22.37
2019-04-30T11:56:50.241Z,21.17
2019-04-30T11:59:15.363Z,20.47
2019-04-30T12:01:41.707Z,20.67
2019-04-30T12:04:09.331Z,21.23
2019-04-30T12:06:35.821Z,21.97
2019-04-30T12:09:15.240Z,21.20
2019-04-30T12:11:45.686Z,20.47
2019-04-30T12:14:12.031Z,21.80
2019-04-30T12:16:39.557Z,20.87
2019-04-30T12:19:06.162Z,19.30
2019-04-30T12:21:32.494Z,20.07
2019-04-30T12:23:58.759Z,18.77
2019-04-30T12:26:24.894Z,19.55
2019-04-30T12:28:51.141Z,18.70
2019-04-30T12:31:18.711Z,17.37
2019-04-30T12:33:45.041Z,16.33
2019-04-30T12:36:11.289Z,16.60
2019-04-30T12:38:37.638Z,16.95
2019-04-30T12:41:04.058Z,15.58
2019-04-30T12:43:30.267Z,16.02
2019-04-30T12:46:04.841Z,16.42
2019-04-30T12:48:39.589Z,17.83
2019-04-30T12:51:23.371Z,18.67
2019-04-30T12:54:00.742Z,18.23
2019-04-30T12:56:31.977Z,15.65
2019-04-30T12:58:58.233Z,14.87
2019-04-30T13:01:24.549Z,16.55
2019-04-30T13:03:58.668Z,14.87
2019-04-30T13:06:20.420Z,15.27
2019-04-30T13:08:49.228Z,15.50
2019-04-30T13:11:15.424Z,14.90
2019-04-30T13:13:43.925Z,15.25
2019-04-30T13:16:10.647Z,15.85
2019-04-30T13:18:36.781Z,14.40
2019-04-30T13:21:03.339Z,14.60
2019-04-30T13:23:29.827Z,15.45
2019-04-30T13:25:56.018Z,15.28
2019-04-30T13:28:24.143Z,15.13
2019-04-30T13:30:50.504Z,13.85
2019-04-30T13:33:28.855Z,13.22
2019-04-30T13:35:55.244Z,14.38
2019-04-30T13:38:26.085Z,15.00
2019-04-30T13:40:58.812Z,12.98
2019-04-30T13:43:36.037Z,13.55
2019-04-30T13:46:02.571Z,12.73
2019-04-30T13:48:28.642Z,13.18
2019-04-30T13:50:55.751Z,13.97
2019-04-30T13:53:22.081Z,13.87
2019-04-30T13:55:48.903Z,13.70
2019-04-30T13:58:15.203Z,14.33
2019-04-30T14:00:42.304Z,14.20
2019-04-30T14:03:19.319Z,15.23
2019-04-30T14:05:45.576Z,14.87
2019-04-30T14:08:22.639Z,15.20
2019-04-30T14:10:49.718Z,14.33
2019-04-30T14:13:16.179Z,15.20
2019-04-30T14:15:43.939Z,15.03
2019-04-30T14:18:10.358Z,15.80
2019-04-30T14:20:36.725Z,16.07
2019-04-30T14:23:03.346Z,16.17
2019-04-30T14:25:29.980Z,15.37
2019-04-30T14:27:56.279Z,15.93
2019-04-30T14:30:22.718Z,13.97
2019-04-30T14:32:50.726Z,14.10
2019-04-30T14:35:18.675Z,15.37
2019-04-30T14:37:45.024Z,14.93
2019-04-30T14:40:13.209Z,14.87
2019-04-30T14:42:42.619Z,15.97
2019-04-30T14:45:18.528Z,15.60
2019-04-30T14:47:50.816Z,14.80
2019-04-30T14:50:19.736Z,15.53
2019-04-30T14:53:03.111Z,13.97
2019-04-30T14:55:31.350Z,12.93
2019-04-30T14:57:59.563Z,15.13
2019-04-30T15:00:38.433Z,16.15
2019-04-30T15:03:15.615Z,15.50
2019-04-30T15:05:48.455Z,15.20
2019-04-30T15:08:10.064Z,16.00
2019-04-30T15:10:36.506Z,15.53
2019-04-30T15:13:02.830Z,15.80
2019-04-30T15:15:29.297Z,16.37
2019-04-30T15:17:56.567Z,17.33
2019-04-30T15:20:22.860Z,17.00
2019-04-30T15:22:58.724Z,16.83
2019-04-30T15:25:25.052Z,16.90
2019-04-30T15:27:51.409Z,16.37
2019-04-30T15:30:21.565Z,15.83
2019-04-30T15:32:49.544Z,15.77
2019-04-30T15:35:15.808Z,16.00
2019-04-30T15:37:44.086Z,14.77
2019-04-30T15:40:10.500Z,17.13
2019-04-30T15:42:38.698Z,16.47
2019-04-30T15:45:05.591Z,17.17
2019-04-30T15:47:32.287Z,17.93
2019-04-30T15:49:59.671Z,17.80
2019-04-30T15:52:28.764Z,16.83
2019-04-30T15:54:54.750Z,16.50
2019-04-30T15:57:20.979Z,17.50
2019-04-30T15:59:47.193Z,17.73
2019-04-30T16:02:15.409Z,18.67
2019-04-30T16:04:59.865Z,17.87
2019-04-30T16:07:26.345Z,18.73
2019-04-30T16:10:06.325Z,17.60
2019-04-30T16:12:34.581Z,18.67
2019-04-30T16:15:00.687Z,19.10
2019-04-30T16:17:29.035Z,20.00
2019-04-30T16:19:55.278Z,19.67
2019-04-30T16:22:21.657Z,19.03
2019-04-30T16:24:49.506Z,19.63
2019-04-30T16:27:15.998Z,19.43
2019-04-30T16:29:42.313Z,20.47
2019-04-30T16:32:09.275Z,18.43
2019-04-30T16:34:35.864Z,19.80
2019-04-30T16:37:02.232Z,18.00
2019-04-30T16:39:28.897Z,19.93
2019-04-30T16:41:55.276Z,19.23
2019-04-30T16:44:22.625Z,19.40
2019-04-30T16:46:49.916Z,19.03
2019-04-30T16:49:16.432Z,18.60
2019-04-30T16:51:42.660Z,19.13
2019-04-30T16:54:09.054Z,18.83
2019-04-30T16:56:35.364Z,19.10
2019-04-30T16:59:06.161Z,18.60
2019-04-30T17:01:33.841Z,19.13
2019-04-30T17:04:20.220Z,18.93
2019-04-30T17:07:03.748Z,18.23
2019-04-30T17:09:43.917Z,18.20
2019-04-30T17:12:12.156Z,17.87
2019-04-30T17:14:43.099Z,17.87
2019-04-30T17:17:09.668Z,16.93
2019-04-30T17:19:36.061Z,16.07
2019-04-30T17:22:02.476Z,16.10
2019-04-30T17:24:30.246Z,15.77
2019-04-30T17:26:59.254Z,16.40
2019-04-30T17:29:25.618Z,16.40
2019-04-30T17:31:53.179Z,16.43
2019-04-30T17:34:19.500Z,16.97
2019-04-30T17:36:45.726Z,16.37
2019-04-30T17:39:16.593Z,15.83
2019-04-30T17:41:42.926Z,17.70
2019-04-30T17:44:09.400Z,16.67
2019-04-30T17:46:38.728Z,15.57
2019-04-30T17:49:05.075Z,17.47
2019-04-30T17:51:31.401Z,17.20
2019-04-30T17:54:14.454Z,17.07
2019-04-30T17:56:42.299Z,16.70
2019-04-30T17:59:08.668Z,16.87
2019-04-30T18:01:35.726Z,17.07
2019-04-30T18:04:01.990Z,16.53
2019-04-30T18:06:28.331Z,17.27
2019-04-30T18:08:54.848Z,16.37
2019-04-30T18:11:22.288Z,17.87
2019-04-30T18:13:50.665Z,17.27
2019-04-30T18:16:18.714Z,17.07
2019-04-30T18:18:49.066Z,17.27
2019-04-30T18:21:18.995Z,17.80
2019-04-30T18:23:53.351Z,17.37
2019-04-30T18:26:19.577Z,17.53
2019-04-30T18:28:45.851Z,17.87
2019-04-30T18:31:12.215Z,17.97
2019-04-30T18:33:38.807Z,18.50
2019-04-30T18:36:05.228Z,19.33
2019-04-30T18:38:31.602Z,18.27
2019-04-30T18:40:59.490Z,19.47
2019-04-30T18:43:25.848Z,20.17
2019-04-30T18:45:52.167Z,21.73
2019-04-30T18:48:19.545Z,19.07
2019-04-30T18:50:45.807Z,17.57
2019-04-30T18:53:15.116Z,17.73
2019-04-30T18:55:41.377Z,18.47
2019-04-30T18:58:08.792Z,18.97
2019-04-30T19:00:39.393Z,19.87
2019-04-30T19:03:05.472Z,20.10
2019-04-30T19:05:31.717Z,19.80
2019-04-30T19:08:09.802Z,19.90
2019-04-30T19:10:43.912Z,19.83
2019-04-30T19:13:29.851Z,18.37
2019-04-30T19:16:22.093Z,19.47
2019-04-30T19:18:50.805Z,18.77
2019-04-30T19:21:17.157Z,18.90
2019-04-30T19:23:43.658Z,18.53
2019-04-30T19:26:09.920Z,19.73
2019-04-30T19:28:36.203Z,19.93
2019-04-30T19:31:02.677Z,19.27
2019-04-30T19:33:31.038Z,19.50
2019-04-30T19:35:58.629Z,19.60
2019-04-30T19:38:26.172Z,19.73
2019-04-30T19:40:52.445Z,19.90
2019-04-30T19:43:18.781Z,20.03
2019-04-30T19:45:45.006Z,21.00
2019-04-30T19:48:11.476Z,21.20
2019-04-30T19:50:37.816Z,19.93
2019-04-30T19:53:04.158Z,19.33
2019-04-30T19:55:30.870Z,19.50
2019-04-30T19:57:59.697Z,20.53
2019-04-30T20:00:25.581Z,20.20
2019-04-30T20:02:52.289Z,20.63
2019-04-30T20:05:19.391Z,20.27
2019-04-30T20:07:45.837Z,20.70
2019-04-30T20:10:12.238Z,20.40
2019-04-30T20:12:38.929Z,21.17
2019-04-30T20:15:16.553Z,21.37
2019-04-30T20:17:33.897Z,21.60
2019-04-30T20:20:00.097Z,21.87
2019-04-30T20:22:26.308Z,22.43
2019-04-30T20:24:52.679Z,22.50
2019-04-30T20:27:19.916Z,21.97
2019-04-30T20:29:46.428Z,23.57
2019-04-30T20:32:12.892Z,24.37
2019-04-30T20:34:39.288Z,23.03
2019-04-30T20:37:05.660Z,24.23
2019-04-30T20:39:42.819Z,25.13
2019-04-30T20:42:09.060Z,24.43
2019-04-30T20:44:35.275Z,24.90
2019-04-30T20:47:01.608Z,25.40
2019-04-30T20:49:29.135Z,25.80
2019-04-30T20:51:56.144Z,25.20
2019-04-30T20:54:22.650Z,26.13
2019-04-30T20:56:51.034Z,24.87
2019-04-30T20:59:18.903Z,25.87
2019-04-30T21:01:45.283Z,26.70
2019-04-30T21:04:11.621Z,25.83
2019-04-30T21:06:39.566Z,24.80
2019-04-30T21:09:05.932Z,26.37
2019-04-30T21:11:32.449Z,26.87
2019-04-30T21:13:59.147Z,27.53
2019-04-30T21:16:25.571Z,27.00
2019-04-30T21:18:51.767Z,28.50
2019-04-30T21:21:18.867Z,29.50
2019-04-30T21:23:46.235Z,28.67
2019-04-30T21:26:12.597Z,30.23
2019-04-30T21:28:39.351Z,29.87
2019-04-30T21:31:24.431Z,27.97
2019-04-30T21:33:52.431Z,29.43
2019-04-30T21:36:20.583Z,29.13
2019-04-30T21:38:48.920Z,27.50
2019-04-30T21:41:15.060Z,28.63
2019-04-30T21:43:41.409Z,29.70
2019-04-30T21:46:09.392Z,29.17
2019-04-30T21:48:38.809Z,28.83
2019-04-30T21:51:04.987Z,30.10
2019-04-30T21:53:31.424Z,29.70
2019-04-30T21:55:57.659Z,31.23
2019-04-30T21:58:23.848Z,30.73
2019-04-30T22:01:07.776Z,29.97
2019-04-30T22:03:35.055Z,30.37
2019-04-30T22:06:01.412Z,31.10
2019-04-30T22:08:28.789Z,30.20
2019-04-30T22:10:55.167Z,31.57
2019-04-30T22:13:21.355Z,30.77
2019-04-30T22:15:47.587Z,34.00
2019-04-30T22:18:13.795Z,31.60
2019-04-30T22:20:40.350Z,31.87
2019-04-30T22:23:06.618Z,32.67
2019-04-30T22:25:32.926Z,33.63
2019-04-30T22:27:59.137Z,33.33
2019-04-30T22:30:25.641Z,33.50
2019-04-30T22:32:51.869Z,33.83
2019-04-30T22:35:25.849Z,33.60
2019-04-30T22:37:54.188Z,34.00
2019-04-30T22:40:20.496Z,34.10
2019-04-30T22:42:46.732Z,34.57
2019-04-30T22:45:15.443Z,34.40
2019-04-30T22:47:41.771Z,34.57
2019-04-30T22:50:08.122Z,34.60
2019-04-30T22:52:34.363Z,35.37
2019-04-30T22:55:01.681Z,36.83
2019-04-30T22:57:28.119Z,38.27
2019-04-30T22:59:54.251Z,35.57
2019-04-30T23:02:26.026Z,35.90
2019-04-30T23:04:52.943Z,33.67
2019-04-30T23:07:19.183Z,35.00
2019-04-30T23:09:45.381Z,36.17
2019-04-30T23:12:11.963Z,38.17
2019-04-30T23:14:38.251Z,37.73
2019-04-30T23:17:04.797Z,38.53
2019-04-30T23:19:31.172Z,37.63
2019-04-30T23:21:57.389Z,37.63
2019-04-30T23:24:23.587Z,36.00
2019-04-30T23:26:49.925Z,35.47
2019-04-30T23:29:16.035Z,36.27
2019-04-30T23:31:42.256Z,37.67
2019-04-30T23:34:17.833Z,36.20
2019-04-30T23:36:36.704Z,39.17
2019-04-30T23:39:04.659Z,38.27
2019-04-30T23:41:30.871Z,39.33
2019-04-30T23:43:57.101Z,37.87
2019-04-30T23:46:23.233Z,37.30
2019-04-30T23:48:49.349Z,37.50
2019-04-30T23:51:15.682Z,36.80
2019-04-30T23:53:41.793Z,35.37
2019-04-30T23:56:07.898Z,38.13
2019-04-30T23:58:34.113Z,39.17
